Time;durP1;ratioP1;P1;durP2;ratioP2;P2;SDS_P1;SDS_P2;PMS_P1;PMS_P2;Temp;Humidity;BMP_temperature;BMP_pressure;BME280_temperature;BME280_humidity;BME280_pressure;Samples;Min_cycle;Max_cycle;Signal;HPM_P1;HPM_P2
2021/06/07 00:00:51;;;;;;;10.88;5.90;;;;;;;18.97;55.27;101090.00;4914790;58;1140954;-74
2021/06/07 00:05:58;;;;;;;6.62;5.78;;;;;;;18.94;55.58;101092.99;4914913;58;1140981;-75
2021/06/07 00:11:05;;;;;;;10.55;5.62;;;;;;;18.92;55.77;101090.16;4915210;58;1139097;-73
2021/06/07 00:16:13;;;;;;;10.93;5.83;;;;;;;18.88;55.50;101090.13;4914802;58;1140958;-74
2021/06/07 00:21:24;;;;;;;7.97;6.12;;;;;;;18.78;55.53;101090.75;4914739;58;1140978;-75
2021/06/07 00:26:30;;;;;;;7.72;5.45;;;;;;;18.76;55.70;101089.56;4915223;58;1139047;-75
2021/06/07 00:31:39;;;;;;;11.48;5.78;;;;;;;18.68;55.63;101088.66;4915768;58;1138855;-72
2021/06/07 00:36:45;;;;;;;10.45;6.03;;;;;;;18.55;55.88;101089.88;4915213;58;1141021;-76
2021/06/07 00:41:52;;;;;;;11.50;5.20;;;;;;;18.41;55.95;101093.63;4915160;58;1140907;-73
2021/06/07 00:46:57;;;;;;;10.98;5.60;;;;;;;18.35;56.28;101095.57;4915171;58;1141260;-73
2021/06/07 00:52:04;;;;;;;14.38;5.42;;;;;;;18.30;56.50;101093.88;4915069;57;1141192;-74
2021/06/07 00:57:10;;;;;;;6.80;5.80;;;;;;;18.23;56.77;101095.83;4904282;58;1141126;-76
2021/06/07 01:02:16;;;;;;;7.80;4.97;;;;;;;18.25;57.03;101097.85;5018361;58;1139185;-74
2021/06/07 01:07:23;;;;;;;9.37;5.13;;;;;;;18.33;56.87;101099.77;5018306;58;1146544;-75
2021/06/07 01:12:28;;;;;;;6.60;5.53;;;;;;;18.41;57.07;101094.47;5018115;58;1138964;-74
2021/06/07 01:17:34;;;;;;;9.30;4.75;;;;;;;18.41;56.54;101079.73;5017939;58;1138487;-75
2021/06/07 01:22:41;;;;;;;12.45;6.12;;;;;;;18.27;56.42;101086.49;5018147;58;1138422;-75
2021/06/07 01:27:49;;;;;;;8.30;5.15;;;;;;;18.14;56.60;101091.41;4915196;58;1140603;-75
2021/06/07 01:32:56;;;;;;;7.73;4.73;;;;;;;18.07;56.93;101094.34;4915116;58;1138515;-73
2021/06/07 01:38:04;;;;;;;9.43;5.77;;;;;;;18.02;57.12;101087.78;4906328;58;1138334;-72
2021/06/07 01:43:10;;;;;;;6.73;5.60;;;;;;;18.00;57.15;101093.78;4913482;58;1249677;-75
2021/06/07 01:48:19;;;;;;;6.57;5.80;;;;;;;17.92;57.21;101093.19;4915243;58;1138905;-75
2021/06/07 01:53:29;;;;;;;13.58;6.08;;;;;;;17.78;57.26;101095.06;4951025;57;1138832;-74
2021/06/07 01:58:37;;;;;;;14.60;6.90;;;;;;;17.67;57.73;101096.62;5063582;57;1140696;-76
2021/06/07 02:03:44;;;;;;;8.57;5.47;;;;;;;17.72;58.78;101085.79;5063603;57;1140665;-74
2021/06/07 02:08:53;;;;;;;8.57;6.23;;;;;;;17.72;58.78;101085.79;5063576;57;1138573;-75
2021/06/07 02:14:03;;;;;;;9.03;5.27;;;;;;;17.81;58.59;101091.59;5063730;57;1138678;-76
2021/06/07 02:19:10;;;;;;;11.60;7.40;;;;;;;17.85;58.74;101087.63;5063665;57;1138560;-73
2021/06/07 02:24:16;;;;;;;15.07;7.00;;;;;;;17.87;59.03;101096.84;5063897;57;1141064;-73
2021/06/07 02:29:22;;;;;;;17.92;7.28;;;;;;;17.96;58.84;101089.72;5064035;57;1141229;-75
2021/06/07 02:34:28;;;;;;;7.37;6.60;;;;;;;18.03;58.76;101096.97;5063888;57;1141287;-75
2021/06/07 02:39:34;;;;;;;15.33;7.10;;;;;;;18.00;58.52;101095.12;5064060;57;1139143;-75
2021/06/07 02:44:40;;;;;;;11.63;6.80;;;;;;;17.92;58.75;101094.03;5063586;57;1141236;-74
2021/06/07 02:49:46;;;;;;;10.23;6.73;;;;;;;17.95;59.06;101094.23;5063734;57;1141028;-73
2021/06/07 02:54:53;;;;;;;14.17;6.70;;;;;;;18.01;59.13;101091.45;5034532;57;1141092;-74
2021/06/07 02:59:59;;;;;;;6.93;5.97;;;;;;;18.06;59.04;101089.13;4915463;58;1141177;-73
2021/06/07 03:05:08;;;;;;;9.17;7.20;;;;;;;18.11;59.02;101093.05;4915529;58;1139318;-73
2021/06/07 03:10:14;;;;;;;11.07;6.10;;;;;;;18.17;59.14;101088.42;4915904;58;1138929;-76
2021/06/07 03:15:24;;;;;;;15.43;6.80;;;;;;;18.21;59.17;101083.58;4915683;58;1141102;-75
2021/06/07 03:20:32;;;;;;;16.20;6.65;;;;;;;18.19;59.12;101075.70;4915453;58;1141188;-73
2021/06/07 03:25:41;;;;;;;18.23;6.40;;;;;;;18.17;59.11;101081.73;4915197;58;1140977;-74
2021/06/07 03:30:50;;;;;;;12.43;6.67;;;;;;;18.04;59.11;101080.41;4915411;58;1141221;-75
2021/06/07 03:35:58;;;;;;;11.10;6.97;;;;;;;17.99;59.53;101083.57;4915762;58;1141492;-75
2021/06/07 03:41:06;;;;;;;10.07;6.07;;;;;;;17.95;59.81;101081.34;4915668;58;1141466;-72
2021/06/07 03:46:13;;;;;;;13.03;6.47;;;;;;;17.88;60.36;101076.59;4918712;58;1141050;-75
2021/06/07 03:51:19;;;;;;;14.93;7.77;;;;;;;17.87;60.40;101078.11;5018533;58;1141124;-72
2021/06/07 03:56:25;;;;;;;19.55;6.53;;;;;;;17.87;60.61;101084.27;5015462;57;1141168;-75
2021/06/07 04:01:31;;;;;;;10.48;7.62;;;;;;;17.85;60.90;101079.59;5000321;57;1141230;-74
2021/06/07 04:06:38;;;;;;;11.53;6.83;;;;;;;17.91;61.38;101084.31;4999992;57;1140977;-72
2021/06/07 04:11:44;;;;;;;13.60;7.00;;;;;;;18.00;61.58;101082.58;5000045;58;1140993;-76
2021/06/07 04:16:50;;;;;;;10.57;6.07;;;;;;;18.12;61.71;101083.18;5000005;58;1140959;-73
2021/06/07 04:21:56;;;;;;;10.73;6.73;;;;;;;18.14;61.54;101084.71;4999963;57;1141268;-73
2021/06/07 04:27:02;;;;;;;16.33;7.10;;;;;;;18.17;61.83;101084.91;5000393;57;1141166;-73
2021/06/07 04:32:10;;;;;;;14.90;6.70;;;;;;;18.24;61.98;101083.28;5000047;58;1140951;-76
2021/06/07 04:37:15;;;;;;;10.63;7.03;;;;;;;18.39;61.72;101080.88;5000843;57;1141529;-73
2021/06/07 04:42:23;;;;;;;16.20;6.87;;;;;;;18.53;61.50;101081.66;5000316;58;1141011;-75
2021/06/07 04:47:29;;;;;;;17.48;6.95;;;;;;;18.65;61.15;101083.10;5000253;57;1141225;-74
2021/06/07 04:52:57;;;;;;;24.40;7.77;;;;;;;18.73;60.85;101079.65;4999961;58;1140472;-74
2021/06/07 04:57:46;;;;;;;12.97;6.43;;;;;;;18.78;60.25;101081.37;4974785;58;1140517;-76
2021/06/07 05:02:53;;;;;;;19.12;7.00;;;;;;;18.79;60.11;101077.69;4954819;58;1140482;-76
2021/06/07 05:07:59;;;;;;;24.77;8.08;;;;;;;18.86;60.28;101080.91;4932513;58;1141029;-76
2021/06/07 05:13:04;;;;;;;13.03;6.62;;;;;;;19.00;60.26;101079.47;4936147;58;1140628;-78
2021/06/07 05:18:12;;;;;;;11.63;6.40;;;;;;;19.17;60.44;101079.89;4936072;58;1140893;-74
2021/06/07 05:23:18;;;;;;;8.03;5.62;;;;;;;19.31;60.26;101075.25;4936178;58;1141467;-76
2021/06/07 05:28:26;;;;;;;30.67;6.90;;;;;;;19.52;60.18;101076.70;4936539;58;1138562;-78
2021/06/07 05:33:31;;;;;;;14.80;6.10;;;;;;;19.76;59.77;101082.61;4935766;58;1140659;-76
2021/06/07 05:38:37;;;;;;;13.75;5.45;;;;;;;19.98;58.68;101072.09;4934892;58;1140524;-73
2021/06/07 05:43:43;;;;;;;14.10;4.70;;;;;;;20.16;57.92;101077.31;4935966;58;1140765;-76
2021/06/07 05:48:48;;;;;;;13.65;4.58;;;;;;;20.31;56.98;101077.48;4936010;58;1140726;-77
2021/06/07 05:53:55;;;;;;;9.40;4.92;;;;;;;20.43;56.04;101077.50;4935582;58;1140873;-78
2021/06/07 05:59:01;;;;;;;6.03;3.47;;;;;;;20.56;54.39;101080.50;4933075;58;1138532;-77
2021/06/07 06:04:07;;;;;;;13.70;4.12;;;;;;;20.68;54.01;101089.04;4968889;58;1138743;-79
2021/06/07 06:09:13;;;;;;;5.10;4.20;;;;;;;20.81;54.21;101090.69;4975716;58;1140519;-74
2021/06/07 06:14:19;;;;;;;10.25;3.70;;;;;;;20.98;53.60;101095.52;4975496;58;1138624;-76
2021/06/07 06:19:24;;;;;;;7.97;3.13;;;;;;;21.16;53.93;101100.69;4975973;58;1140983;-76
2021/06/07 06:24:30;;;;;;;7.33;3.50;;;;;;;21.36;52.75;101097.45;4975847;58;1139139;-77
2021/06/07 06:29:37;;;;;;;36.83;4.45;;;;;;;21.49;52.31;101100.08;4976266;58;1138457;-74
2021/06/07 06:34:44;;;;;;;6.20;3.35;;;;;;;21.60;51.89;101095.64;4975776;58;1141041;-74
2021/06/07 06:39:50;;;;;;;5.60;3.87;;;;;;;21.76;51.16;101100.42;4976149;58;1139108;-77
2021/06/07 06:44:57;;;;;;;11.50;3.40;;;;;;;21.94;51.33;101092.06;4975361;58;1138890;-76
2021/06/07 06:50:09;;;;;;;5.90;3.47;;;;;;;22.12;50.88;101097.20;4976248;58;1141028;-76
2021/06/07 06:55:16;;;;;;;7.57;3.10;;;;;;;22.33;50.96;101094.64;4896183;58;1139139;-74
2021/06/07 07:00:23;;;;;;;8.08;3.70;;;;;;;22.52;50.18;101096.00;4901383;58;1139020;-76
2021/06/07 07:05:29;;;;;;;4.65;3.12;;;;;;;22.73;50.47;101095.30;4925070;58;1138903;-77
2021/06/07 07:10:38;;;;;;;12.03;4.20;;;;;;;23.13;49.35;101104.32;5005139;58;1139164;-74
2021/06/07 07:15:45;;;;;;;15.25;3.70;;;;;;;23.13;49.35;101104.32;4935925;58;1141270;-75
2021/06/07 07:20:51;;;;;;;7.87;3.47;;;;;;;23.44;49.75;101108.16;4926439;58;1141531;-75
2021/06/07 07:25:58;;;;;;;11.30;3.00;;;;;;;23.65;48.40;101111.98;4967479;58;1139216;-75
2021/06/07 07:31:04;;;;;;;7.53;3.50;;;;;;;23.80;47.67;101113.62;5005966;58;1140761;-74
2021/06/07 07:36:15;;;;;;;3.92;3.58;;;;;;;23.90;46.76;101112.45;5048133;58;1139087;-73
2021/06/07 07:41:21;;;;;;;9.33;3.37;;;;;;;24.02;46.41;101119.86;5006988;58;1138830;-78
2021/06/07 07:46:27;;;;;;;9.43;4.90;;;;;;;24.18;46.30;101109.31;5006392;58;1138955;-75
2021/06/07 07:51:33;;;;;;;53.23;4.95;;;;;;;24.37;45.99;101110.05;5005495;58;1138874;-74
2021/06/07 07:56:40;;;;;;;8.60;4.20;;;;;;;24.53;47.78;101106.23;5005502;58;1140991;-74
2021/06/07 08:01:47;;;;;;;41.40;5.03;;;;;;;24.73;47.01;101107.23;5005346;58;1138881;-73
2021/06/07 08:06:53;;;;;;;10.18;4.42;;;;;;;24.90;47.61;101109.11;4982383;57;1140994;-73
2021/06/07 08:12:01;;;;;;;26.10;5.28;;;;;;;25.11;47.88;101109.05;5032458;57;1141265;-74
2021/06/07 08:17:16;;;;;;;169.37;11.05;;;;;;;25.28;47.73;101102.79;5009510;57;1141071;-74
2021/06/07 08:22:22;;;;;;;7.20;3.86;;;;;;;25.34;46.33;101101.16;4979852;57;1145707;-78
2021/06/07 08:27:29;;;;;;;8.20;3.60;;;;;;;25.38;46.24;101105.95;5000283;57;1139136;-76
2021/06/07 08:32:36;;;;;;;9.83;3.60;;;;;;;25.43;44.50;101101.30;5061361;57;1139471;-75
2021/06/07 08:37:43;;;;;;;6.87;3.20;;;;;;;25.50;45.31;101103.53;5067855;57;1138448;-77
2021/06/07 08:42:49;;;;;;;10.82;4.00;;;;;;;25.57;43.89;101098.44;4985678;57;1138876;-73
2021/06/07 08:47:56;;;;;;;6.05;3.50;;;;;;;25.73;43.94;101100.50;4979064;57;1140535;-75
2021/06/07 08:53:02;;;;;;;4.85;2.67;;;;;;;25.84;40.55;101096.66;4967754;57;1138347;-73
2021/06/07 08:58:08;;;;;;;6.28;3.05;;;;;;;25.88;40.69;101102.00;5081315;57;1138591;-74
2021/06/07 09:03:20;;;;;;;4.47;2.72;;;;;;;25.95;40.21;101102.02;5032758;57;1138673;-75
2021/06/07 09:08:36;;;;;;;14.38;2.92;;;;;;;26.11;40.65;101113.00;4855991;58;1138518;-73
2021/06/07 09:13:45;;;;;;;3.98;2.65;;;;;;;26.26;38.56;101113.64;4835813;59;1140894;-76
2021/06/07 09:18:50;;;;;;;5.53;3.00;;;;;;;26.29;37.42;101110.53;4836482;59;1138365;-73
2021/06/07 09:24:06;;;;;;;3.35;2.62;;;;;;;26.28;38.86;101106.11;4835866;59;1138512;-73
2021/06/07 09:29:29;;;;;;;4.70;2.87;;;;;;;26.36;38.34;101103.77;4846778;59;1138577;-73
2021/06/07 09:34:39;;;;;;;4.20;3.17;;;;;;;26.55;41.02;101101.58;4913276;58;1138598;-73
2021/06/07 09:39:45;;;;;;;5.90;2.83;;;;;;;26.86;41.25;101099.56;4913339;58;1138557;-73
2021/06/07 09:44:55;;;;;;;3.47;2.90;;;;;;;27.03;40.43;101092.67;4913106;58;1138525;-76
2021/06/07 09:50:11;;;;;;;4.25;2.42;;;;;;;27.10;38.47;101098.06;4913335;58;1138578;-74
2021/06/07 09:55:23;;;;;;;4.30;2.60;;;;;;;27.14;36.88;101089.81;4912806;58;1138628;-74
2021/06/07 10:00:43;;;;;;;12.50;3.13;;;;;;;27.18;37.59;101094.61;4913582;58;1139072;-76
2021/06/07 10:05:52;;;;;;;7.95;2.33;;;;;;;27.32;37.65;101099.47;4911585;57;1140656;-75
2021/06/07 10:10:58;;;;;;;5.83;2.80;;;;;;;27.37;37.47;101096.09;4912999;58;1138460;-74
2021/06/07 10:16:09;;;;;;;7.62;2.50;;;;;;;27.57;37.54;101096.35;4903582;58;1138989;-74
2021/06/07 10:21:15;;;;;;;4.60;2.67;;;;;;;27.78;36.09;101097.92;4912938;58;1138901;-76
2021/06/07 10:26:21;;;;;;;7.05;2.62;;;;;;;27.93;34.52;101098.98;4912937;58;1139261;-73
2021/06/07 10:31:28;;;;;;;8.03;2.70;;;;;;;27.98;35.37;101101.33;4902325;58;1139034;-76
2021/06/07 10:36:50;;;;;;;8.40;2.40;;;;;;;28.12;34.81;101095.27;4872668;58;1139015;-77
2021/06/07 10:42:14;;;;;;;9.07;2.83;;;;;;;28.11;34.53;101094.97;4835747;58;1138950;-75
2021/06/07 10:47:31;;;;;;;4.74;2.30;;;;;;;28.10;35.85;101087.89;4870818;58;1138940;-76
2021/06/07 10:52:58;;;;;;;8.00;2.77;;;;;;;28.26;34.36;101080.55;4921045;58;1139143;-74
2021/06/07 10:58:14;;;;;;;6.05;2.42;;;;;;;28.40;33.30;101086.74;4912723;58;1138646;-73
2021/06/07 11:03:23;;;;;;;3.77;2.50;;;;;;;28.41;34.13;101077.53;4912986;58;1138659;-73
2021/06/07 11:08:38;;;;;;;5.45;2.65;;;;;;;28.53;33.58;101077.63;4946521;57;1138514;-75
2021/06/07 11:14:02;;;;;;;12.95;3.08;;;;;;;28.69;35.41;101073.80;5061016;57;1138509;-76
2021/06/07 11:19:14;;;;;;;4.87;2.40;;;;;;;28.81;35.06;101069.00;5047347;57;1140803;-74
2021/06/07 11:24:38;;;;;;;7.88;2.84;;;;;;;28.82;33.57;101063.86;5050617;57;1138923;-75
2021/06/07 11:30:06;;;;;;;3.00;2.80;;;;;;;28.81;35.16;101064.39;4998894;58;1138629;-76
2021/06/07 11:35:41;;;;;;;5.33;3.05;;;;;;;28.86;33.43;101059.11;4998348;58;1138544;-77
2021/06/07 11:40:47;;;;;;;2.95;2.42;;;;;;;28.94;33.96;101063.41;4998738;58;1138600;-76
2021/06/07 11:45:53;;;;;;;4.85;2.15;;;;;;;29.11;33.80;101056.30;4980028;58;1138697;-75
2021/06/07 11:51:20;;;;;;;6.12;2.80;;;;;;;29.31;33.94;101050.61;4982330;58;1138515;-78
2021/06/07 11:56:26;;;;;;;7.44;2.74;;;;;;;29.61;34.86;101053.39;4982438;58;1138661;-77
2021/06/07 12:01:36;;;;;;;6.08;2.20;;;;;;;29.64;33.11;101052.90;4982440;58;1138901;-79
2021/06/07 12:06:43;;;;;;;10.68;2.50;;;;;;;29.52;32.53;101041.95;4982718;58;1138968;-80
2021/06/07 12:11:49;;;;;;;7.17;2.58;;;;;;;29.56;32.34;101036.88;4899893;58;1141256;-75
2021/06/07 12:16:58;;;;;;;5.70;2.80;;;;;;;29.57;32.40;101035.29;4838526;59;1139087;-76
2021/06/07 12:22:04;;;;;;;3.87;2.90;;;;;;;29.78;30.79;101027.13;4835574;59;1139385;-77
2021/06/07 12:32:34;;;;;;;2.22;2.12;;;;;;;29.96;30.82;101022.94;4838706;59;1138956;-76
2021/06/07 12:37:49;;;;;;;8.60;2.70;;;;;;;29.97;30.97;101022.44;4838657;59;1139072;-74
2021/06/07 12:43:05;;;;;;;5.15;2.50;;;;;;;30.07;31.80;101026.27;4837672;59;1138491;-77
2021/06/07 12:48:23;;;;;;;7.15;2.60;;;;;;;30.12;31.34;101020.62;4836967;59;1138518;-75
2021/06/07 12:53:34;;;;;;;3.87;2.47;;;;;;;30.27;31.29;101013.63;4836912;59;1138456;-75
2021/06/07 12:58:49;;;;;;;2.95;2.50;;;;;;;30.32;29.56;101002.02;4837267;59;1138560;-77
2021/06/07 13:03:58;;;;;;;9.35;2.65;;;;;;;30.38;30.73;101007.91;4837539;59;1138619;-76
2021/06/07 13:09:04;;;;;;;9.35;2.62;;;;;;;30.43;29.93;101008.00;4837024;59;1138383;-76
2021/06/07 13:14:26;;;;;;;11.10;2.35;;;;;;;30.61;30.49;100996.16;4902194;58;1138519;-77
2021/06/07 13:19:32;;;;;;;5.72;2.83;;;;;;;30.78;29.97;100999.81;4927320;59;1140989;-78
2021/06/07 13:24:41;;;;;;;5.90;2.17;;;;;;;30.83;29.84;100999.93;4927369;59;1138693;-75
2021/06/07 13:30:07;;;;;;;4.55;2.30;;;;;;;30.87;29.79;100994.25;4927819;59;1138564;-77
2021/06/07 13:35:20;;;;;;;9.80;2.30;;;;;;;30.97;29.86;100996.39;4927741;58;1138693;-75
2021/06/07 13:40:29;;;;;;;5.23;2.63;;;;;;;30.98;29.35;100994.78;4962942;58;1138672;-77
2021/06/07 13:45:41;;;;;;;2.60;2.40;;;;;;;30.94;29.46;100988.67;4968339;58;1138716;-79
2021/06/07 13:50:56;;;;;;;5.25;2.37;;;;;;;30.99;29.88;100985.52;4968780;58;1138895;-78
2021/06/07 13:56:09;;;;;;;7.60;2.30;;;;;;;30.76;28.79;100985.56;4967601;58;1138929;-76
2021/06/07 14:01:17;;;;;;;2.58;2.37;;;;;;;30.71;28.36;100984.08;4967996;58;1138915;-79
2021/06/07 14:06:24;;;;;;;6.03;2.00;;;;;;;30.65;28.88;100974.96;4898437;58;1138883;-76
2021/06/07 14:11:41;;;;;;;4.53;1.42;;;;;;;30.76;28.22;100967.27;4923589;58;1138929;-78
2021/06/07 14:16:45;;;;;;;3.12;1.70;;;;;;;30.92;26.82;100961.59;4925385;59;1138748;-76
2021/06/07 14:27:13;;;;;;;13.83;1.70;;;;;;;30.96;24.69;100967.41;4928198;59;1138841;-77
2021/06/07 14:32:19;;;;;;;6.90;1.50;;;;;;;31.10;25.29;100960.08;4968334;58;1140626;-79
2021/06/07 14:37:26;;;;;;;2.12;1.37;;;;;;;31.29;25.65;100954.42;4909140;58;1138402;-77
2021/06/07 14:42:32;;;;;;;6.17;1.45;;;;;;;31.44;25.13;100950.59;4928231;58;1139217;-77
2021/06/07 14:47:39;;;;;;;1.40;1.40;;;;;;;31.41;24.67;100951.91;5037587;57;1139138;-80
2021/06/07 14:52:49;;;;;;;292.57;14.43;;;;;;;31.24;23.25;100947.48;4940286;58;1139394;-79
2021/06/07 14:57:53;;;;;;;1.57;1.10;;;;;;;31.15;23.99;100942.13;4925365;58;1145298;-77
2021/06/07 15:02:59;;;;;;;4.12;1.47;;;;;;;31.19;22.84;100946.02;4949102;58;1139372;-76
2021/06/07 15:08:07;;;;;;;2.40;1.50;;;;;;;31.12;23.07;100937.98;4999944;58;1139256;-76
2021/06/07 15:13:14;;;;;;;7.05;2.25;;;;;;;31.10;24.55;100934.66;4949295;58;1138933;-77
2021/06/07 15:18:20;;;;;;;1.80;1.25;;;;;;;31.06;24.35;100929.34;4925485;58;1139239;-80
2021/06/07 15:23:26;;;;;;;2.80;1.52;;;;;;;31.03;22.93;100922.46;4966863;58;1138803;-77
2021/06/07 15:28:35;;;;;;;2.80;1.30;;;;;;;30.90;22.18;100911.00;4991781;58;1138881;-81
2021/06/07 15:33:41;;;;;;;3.17;1.13;;;;;;;30.69;23.18;100915.24;4951975;58;1139239;-75
2021/06/07 15:38:51;;;;;;;6.72;1.70;;;;;;;30.74;23.52;100904.41;4918183;59;1138600;-79
2021/06/07 15:43:55;;;;;;;9.03;1.82;;;;;;;30.71;23.49;100898.89;4968508;58;1138710;-80
2021/06/07 15:49:03;;;;;;;8.40;1.80;;;;;;;30.70;22.97;100895.89;4928179;58;1139127;-81
2021/06/07 15:54:09;;;;;;;6.67;1.40;;;;;;;30.73;23.83;100892.65;4928319;59;1138397;-76
2021/06/07 15:59:15;;;;;;;5.20;1.70;;;;;;;30.74;23.10;100894.84;4927494;59;1138676;-77
2021/06/07 16:04:26;;;;;;;2.47;1.25;;;;;;;30.67;23.06;100888.71;4946700;58;1138602;-77
2021/06/07 16:09:33;;;;;;;1.42;1.42;;;;;;;30.75;23.48;100886.95;4968576;58;1138657;-80
2021/06/07 16:14:39;;;;;;;6.92;2.62;;;;;;;30.78;23.49;100879.11;4928523;58;1138487;-77
2021/06/07 16:19:59;;;;;;;3.02;1.32;;;;;;;30.75;23.18;100878.75;4973416;58;1139148;-81
2021/06/07 16:25:00;;;;;;;3.30;1.40;;;;;;;30.70;23.10;100875.41;4981184;58;1138851;-75
2021/06/07 16:30:07;;;;;;;4.10;3.70;;;;;;;30.76;22.80;100878.52;5000369;58;1138884;-79
2021/06/07 16:35:14;;;;;;;3.05;2.30;;;;;;;30.72;23.29;100875.97;4981646;58;1139100;-77
2021/06/07 16:40:20;;;;;;;22.52;2.60;;;;;;;30.59;23.35;100872.16;4981217;58;1138906;-75
2021/06/07 16:45:27;;;;;;;14.82;2.76;;;;;;;30.57;23.98;100870.73;4999718;58;1140987;-76
2021/06/07 16:50:35;;;;;;;5.78;3.12;;;;;;;30.57;23.98;100870.73;4982936;58;1141057;-76
2021/06/07 16:55:41;;;;;;;10.53;3.25;;;;;;;30.47;23.74;100869.97;4983207;58;1138793;-74
2021/06/07 17:00:48;;;;;;;11.60;2.25;;;;;;;30.36;24.14;100872.20;4982724;58;1140558;-76
2021/06/07 17:05:54;;;;;;;4.10;3.12;;;;;;;30.23;24.57;100868.38;4982859;58;1140378;-76
2021/06/07 17:11:00;;;;;;;7.78;1.70;;;;;;;30.10;24.91;100866.70;4983172;58;1138773;-76
2021/06/07 17:16:07;;;;;;;5.50;1.67;;;;;;;29.91;24.48;100866.00;4983794;58;1138491;-75
2021/06/07 17:21:13;;;;;;;1.90;1.52;;;;;;;29.86;24.73;100863.69;4868451;58;1138608;-74
2021/06/07 17:26:18;;;;;;;4.22;1.90;;;;;;;29.77;24.69;100870.57;4840019;59;1138458;-77
2021/06/07 17:31:25;;;;;;;10.95;1.50;;;;;;;29.73;24.62;100862.86;4840357;59;1138681;-76
2021/06/07 17:36:31;;;;;;;4.53;1.62;;;;;;;29.59;26.01;100877.78;4840085;59;1140620;-75
2021/06/07 17:41:37;;;;;;;13.93;2.40;;;;;;;29.59;26.01;100877.78;4909860;58;1138486;-76
2021/06/07 17:46:43;;;;;;;22.85;2.80;;;;;;;29.40;26.04;100870.75;4916738;58;1140444;-74
2021/06/07 17:51:50;;;;;;;23.15;3.70;;;;;;;29.24;26.41;100876.31;4916943;58;1140364;-74
2021/06/07 17:56:56;;;;;;;23.87;3.65;;;;;;;29.12;26.65;100879.55;4916436;58;1140584;-74
2021/06/07 18:02:02;;;;;;;10.25;2.70;;;;;;;28.95;26.92;100881.25;4913578;58;1140858;-76
2021/06/07 18:07:08;;;;;;;8.48;2.05;;;;;;;28.77;27.23;100883.98;4916180;58;1140576;-76
2021/06/07 18:12:15;;;;;;;9.95;1.70;;;;;;;28.62;27.66;100881.13;4914574;58;1138542;-75
2021/06/07 18:17:21;;;;;;;24.00;5.17;;;;;;;28.55;28.02;100878.20;4914747;58;1138638;-75
2021/06/07 18:22:27;;;;;;;24.25;4.35;;;;;;;28.51;28.87;100881.07;4914579;57;1140745;-78
2021/06/07 18:27:32;;;;;;;26.45;2.75;;;;;;;28.46;29.37;100889.91;4915345;58;1140855;-76
2021/06/07 18:32:38;;;;;;;22.82;3.72;;;;;;;28.37;30.18;100897.25;4914956;58;1140887;-73
2021/06/07 18:37:47;;;;;;;81.28;7.25;;;;;;;28.31;30.87;100887.57;4914939;58;1140708;-73
2021/06/07 18:42:57;;;;;;;48.68;5.50;;;;;;;28.29;31.45;100895.65;4914621;58;1140587;-76
2021/06/07 18:48:01;;;;;;;39.35;6.20;;;;;;;28.26;30.72;100895.56;4905613;58;1140360;-74
2021/06/07 18:53:07;;;;;;;16.25;3.85;;;;;;;28.00;31.55;100896.65;4914739;58;1140393;-74
2021/06/07 18:58:13;;;;;;;15.32;3.80;;;;;;;27.77;31.68;100897.83;4914323;58;1140422;-75
2021/06/07 19:03:19;;;;;;;11.48;3.47;;;;;;;27.56;32.60;100904.47;4914930;58;1140773;-77
2021/06/07 19:08:25;;;;;;;197.93;15.32;;;;;;;27.36;33.21;100910.53;4915138;58;1140951;-76
2021/06/07 19:13:31;;;;;;;43.42;5.28;;;;;;;27.30;34.33;100909.55;4914816;58;1144791;-76
2021/06/07 19:18:37;;;;;;;19.35;7.67;;;;;;;27.16;34.03;100913.39;4915410;58;1140610;-76
2021/06/07 19:23:46;;;;;;;27.77;8.23;;;;;;;26.91;33.71;100924.13;4915146;57;1140811;-74
2021/06/07 19:28:58;;;;;;;38.88;7.95;;;;;;;26.68;34.60;100932.48;4914631;58;1140669;-76
2021/06/07 19:34:00;;;;;;;44.20;13.90;;;;;;;26.57;36.63;100941.61;4916488;58;1140462;-76
2021/06/07 19:39:07;;;;;;;21.40;7.70;;;;;;;26.33;36.45;100965.34;4916506;58;1142569;-75
2021/06/07 19:44:13;;;;;;;19.60;6.42;;;;;;;25.90;36.56;100967.12;4917060;58;1140529;-76
2021/06/07 19:49:19;;;;;;;128.42;10.55;;;;;;;25.59;36.20;100970.91;4916702;58;1140373;-75
2021/06/07 19:54:25;;;;;;;15.55;4.50;;;;;;;25.38;36.23;100973.78;4916457;58;1144624;-76
2021/06/07 19:59:31;;;;;;;13.53;4.65;;;;;;;25.22;36.48;100981.75;4916811;58;1140476;-76
2021/06/07 20:04:37;;;;;;;11.45;4.58;;;;;;;25.12;36.68;100978.60;4916859;58;1140615;-76
2021/06/07 20:09:43;;;;;;;11.30;5.03;;;;;;;24.99;36.71;100989.37;4916984;58;1140565;-79
2021/06/07 20:14:49;;;;;;;12.05;3.40;;;;;;;24.87;37.27;100993.16;4916814;58;1140402;-75
2021/06/07 20:19:55;;;;;;;5.00;3.52;;;;;;;24.76;37.58;100997.23;4916802;58;1140376;-75
2021/06/07 20:25:01;;;;;;;5.47;3.20;;;;;;;24.61;37.67;101003.30;4977185;57;1138359;-75
2021/06/07 20:30:11;;;;;;;6.05;3.20;;;;;;;24.45;38.23;101000.90;4984120;58;1138482;-78
2021/06/07 20:35:18;;;;;;;15.18;7.53;;;;;;;24.27;38.93;101012.75;4983509;58;1138302;-78
2021/06/07 20:40:24;;;;;;;18.40;7.97;;;;;;;24.25;39.36;101016.16;5002550;57;1140388;-77
2021/06/07 20:45:30;;;;;;;7.70;4.45;;;;;;;24.35;39.52;101025.59;4983883;58;1140368;-78
2021/06/07 20:50:36;;;;;;;7.22;3.72;;;;;;;24.36;39.49;101023.20;4984527;58;1138772;-76
2021/06/07 20:55:42;;;;;;;5.57;3.43;;;;;;;24.17;39.70;101029.25;4984470;58;1138449;-76
2021/06/07 21:00:48;;;;;;;3.37;3.10;;;;;;;23.99;40.19;101033.77;4984423;58;1138491;-78
2021/06/07 21:05:53;;;;;;;18.90;4.10;;;;;;;23.81;40.65;101032.90;4984225;58;1138567;-77
2021/06/07 21:11:00;;;;;;;64.25;5.90;;;;;;;23.67;41.12;101039.20;4983998;58;1140754;-75
2021/06/07 21:16:05;;;;;;;8.70;3.80;;;;;;;23.55;41.42;101043.91;4983945;57;1140874;-75
2021/06/07 21:21:11;;;;;;;12.75;5.10;;;;;;;23.50;41.92;101045.83;4984132;58;1138452;-77
2021/06/07 21:26:17;;;;;;;23.52;8.43;;;;;;;23.47;42.44;101050.25;4915203;58;1140830;-74
2021/06/07 21:31:23;;;;;;;16.25;7.60;;;;;;;23.44;42.49;101049.27;4862144;58;1140363;-73
2021/06/07 21:36:29;;;;;;;9.48;5.28;;;;;;;23.40;42.96;101054.72;4917415;58;1140457;-75
2021/06/07 21:41:35;;;;;;;9.23;4.33;;;;;;;23.34;43.08;101060.90;4917559;58;1138846;-76
2021/06/07 21:46:41;;;;;;;11.85;3.65;;;;;;;23.15;43.28;101063.66;4917625;58;1138802;-71
2021/06/07 21:51:47;;;;;;;6.33;3.98;;;;;;;23.02;43.67;101067.03;4917437;58;1140875;-77
2021/06/07 21:56:53;;;;;;;5.55;3.02;;;;;;;22.86;43.62;101069.91;4916484;58;1138852;-78
2021/06/07 22:01:59;;;;;;;5.83;3.17;;;;;;;22.59;43.75;101067.30;4917369;58;1138832;-74
2021/06/07 22:07:04;;;;;;;3.75;2.80;;;;;;;22.38;43.99;101072.55;4912542;58;1138779;-76
2021/06/07 22:12:11;;;;;;;7.75;2.70;;;;;;;22.19;44.11;101075.73;4841117;59;1138792;-75
2021/06/07 22:17:16;;;;;;;5.05;2.58;;;;;;;22.06;44.41;101078.53;4840280;59;1138788;-72
2021/06/07 22:22:22;;;;;;;4.25;2.58;;;;;;;21.91;44.51;101072.22;4840404;59;1138872;-74
2021/06/07 22:27:29;;;;;;;7.75;2.60;;;;;;;21.80;44.60;101082.57;4840153;59;1138889;-72
2021/06/07 22:32:36;;;;;;;4.50;2.80;;;;;;;21.73;44.85;101079.73;4840353;59;1138804;-76
2021/06/07 22:37:42;;;;;;;9.33;3.20;;;;;;;21.73;45.01;101086.47;4840447;59;1138872;-75
2021/06/07 22:42:48;;;;;;;5.50;3.20;;;;;;;21.88;45.51;101079.81;4840473;59;1138829;-75
2021/06/07 22:47:55;;;;;;;8.40;3.40;;;;;;;21.88;45.51;101079.81;4840268;59;1138745;-73
2021/06/07 22:53:01;;;;;;;3.30;3.00;;;;;;;21.93;45.19;101080.13;4840422;59;1138778;-73
2021/06/07 22:58:06;;;;;;;6.58;2.92;;;;;;;21.95;45.27;101079.44;4840369;59;1139046;-76
2021/06/07 23:03:12;;;;;;;5.75;2.90;;;;;;;21.90;45.23;101074.58;4840367;59;1138735;-72
2021/06/07 23:08:19;;;;;;;6.67;2.85;;;;;;;21.84;45.25;101075.31;4840259;59;1138818;-79
2021/06/07 23:13:24;;;;;;;3.27;2.90;;;;;;;21.77;45.34;101077.03;4840189;59;1138468;-71
2021/06/07 23:18:30;;;;;;;4.30;2.80;;;;;;;21.68;45.40;101078.11;4840037;59;1138728;-76
2021/06/07 23:23:36;;;;;;;21.37;3.33;;;;;;;21.59;45.57;101071.91;4840175;59;1138765;-74